Аэропорт: Одесса. Одесса

ICAO: UKOO

METAR:
2020-08-13 10:30:00
UKOO 131030Z 35004MPS 280V050 CAVOK 24/07 Q1017 R34/090060 NOSIG
METAR:
2020-08-13 05:05:00
TAF UKOO 130505Z 1306/1406 36005G12MPS 6000 SCT015 SCT020CB TX28/1312Z TN17/1402Z PROB40 TEMPO 1308/1318 2100 -TSRA TEMPO 1318/1321 32003MPS BECMG 1400/1401 03003MPS